Bakerville, Wisconsin
Current Conditions -  °F | °C
As of 4:54 AM on Thursday 27 Nov 2014 (Local Time) from KMFI Reporting Station
Light Snow Light Snow  
Wind Chill: -1°   Ceiling: 4400
Heat Index: 14°   Visibility: 3mi
Dew Point:   Wind: 15mph
Humidity: 77%   Direction: 320°NW
Pressure: 30.29"   Gusts: NA
Location:  44.6413°N, 90.1945°W
Report Text: KMFI 271054Z AUTO 32013KT 3SM -SN FEW031 OVC044 M10/M13 A3029 RMK AO2 SNB32 SLP282 P0000 T11001133
Loading
Personal Weather Stations






























Interactive Weather Map New forecast layout! Learn more

10-Day Weather Forecast

Advertisements
Track Severe Weather on mobile